createdAt,value
2023-11-30T00:01:39.200Z,95877.88
2023-11-30T00:04:26.061Z,95866.56
2023-11-30T00:07:13.769Z,95868.19
2023-11-30T00:10:00.653Z,95882.31
2023-11-30T00:12:47.527Z,95875.44
2023-11-30T00:15:34.610Z,95887.69
2023-11-30T00:18:21.542Z,95883.44
2023-11-30T00:21:08.544Z,95890.50
2023-11-30T00:23:55.446Z,95894.75
2023-11-30T00:26:43.737Z,95901.81
2023-11-30T00:29:30.570Z,95898.53
2023-11-30T00:32:17.492Z,95893.28
2023-11-30T00:35:04.631Z,95890.81
2023-11-30T00:37:51.475Z,95887.38
2023-11-30T00:40:41.285Z,95881.47
2023-11-30T00:43:28.126Z,95896.25
2023-11-30T00:46:17.015Z,95892.81
2023-11-30T00:49:03.934Z,95898.84
2023-11-30T00:51:50.838Z,95898.03
2023-11-30T00:54:37.696Z,95898.03
2023-11-30T00:57:24.690Z,95903.28
2023-11-30T01:00:11.904Z,95888.69
2023-11-30T01:02:58.922Z,95899.81
2023-11-30T01:05:45.819Z,95899.81
2023-11-30T01:08:32.661Z,95892.94
2023-11-30T01:11:19.543Z,95895.56
2023-11-30T01:14:06.445Z,95899.00
2023-11-30T01:16:53.672Z,95892.44
2023-11-30T01:19:40.556Z,95897.69
2023-11-30T01:22:27.405Z,95904.56
2023-11-30T01:25:15.030Z,95904.75
2023-11-30T01:28:01.991Z,95902.94
2023-11-30T01:30:48.975Z,95902.94
2023-11-30T01:33:37.825Z,95899.50
2023-11-30T01:36:24.749Z,95905.75
2023-11-30T01:39:11.786Z,95899.69
2023-11-30T01:41:58.689Z,95899.50
2023-11-30T01:44:45.588Z,95897.06
2023-11-30T01:47:33.214Z,95895.41
2023-11-30T01:50:20.351Z,95891.81
2023-11-30T01:53:07.397Z,95889.34
2023-11-30T01:55:54.631Z,95884.91
2023-11-30T01:58:41.943Z,95880.66
2023-11-30T02:01:29.045Z,95878.84
2023-11-30T02:04:16.708Z,95878.22
2023-11-30T02:07:03.987Z,95882.63
2023-11-30T02:09:51.298Z,95871.31
2023-11-30T02:12:38.180Z,95872.28
2023-11-30T02:15:25.095Z,95870.50
2023-11-30T02:18:12.053Z,95868.69
2023-11-30T02:20:58.990Z,95864.28
2023-11-30T02:23:45.932Z,95863.44
2023-11-30T02:26:32.809Z,95856.75
2023-11-30T02:29:19.962Z,95853.94
2023-11-30T02:32:06.944Z,95861.97
2023-11-30T02:34:53.777Z,95860.19
2023-11-30T02:37:40.621Z,95853.31
2023-11-30T02:40:27.481Z,95845.44
2023-11-30T02:43:14.334Z,95847.22
2023-11-30T02:46:01.245Z,95842.97
2023-11-30T02:48:48.208Z,95842.31
2023-11-30T02:51:36.296Z,95844.75
2023-11-30T02:54:23.242Z,95847.56
2023-11-30T02:57:10.221Z,95845.75
2023-11-30T02:59:57.293Z,95844.94
2023-11-30T03:02:44.280Z,95830.03
2023-11-30T03:05:32.272Z,95825.75
2023-11-30T03:08:19.280Z,95815.25
2023-11-30T03:11:06.328Z,95809.19
2023-11-30T03:13:53.421Z,95810.19
2023-11-30T03:16:40.439Z,95812.00
2023-11-30T03:19:27.940Z,95805.94
2023-11-30T03:22:14.888Z,95816.44
2023-11-30T03:25:01.837Z,95809.69
2023-11-30T03:27:48.708Z,95814.13
2023-11-30T03:30:35.747Z,95809.88
2023-11-30T03:33:22.672Z,95818.56
2023-11-30T03:36:09.915Z,95816.91
2023-11-30T03:38:57.308Z,95809.22
2023-11-30T03:41:44.285Z,95802.16
2023-11-30T03:44:31.119Z,95784.81
2023-11-30T03:47:17.991Z,95790.69
2023-11-30T03:50:05.247Z,95788.25
2023-11-30T03:52:52.273Z,95797.09
2023-11-30T03:55:39.301Z,95810.19
2023-11-30T03:58:26.140Z,95806.09
2023-11-30T04:01:13.081Z,95808.72
2023-11-30T04:04:00.094Z,95805.78
2023-11-30T04:06:47.085Z,95815.91
2023-11-30T04:09:37.341Z,95824.75
2023-11-30T04:12:24.278Z,95821.31
2023-11-30T04:15:11.359Z,95818.53
2023-11-30T04:17:58.348Z,95815.28
2023-11-30T04:20:45.345Z,95822.16
2023-11-30T04:23:32.369Z,95822.16
2023-11-30T04:26:19.230Z,95824.13
2023-11-30T04:29:06.093Z,95820.03
2023-11-30T04:31:52.940Z,95819.84
2023-11-30T04:34:39.788Z,95819.84
2023-11-30T04:37:26.654Z,95821.81
2023-11-30T04:40:13.807Z,95827.72
2023-11-30T04:43:00.966Z,95826.06
2023-11-30T04:45:47.823Z,95810.53
2023-11-30T04:48:34.757Z,95809.03
2023-11-30T04:51:21.879Z,95814.09
2023-11-30T04:54:08.813Z,95808.06
2023-11-30T04:56:55.697Z,95812.66
2023-11-30T04:59:42.561Z,95804.94
2023-11-30T05:02:29.562Z,95811.00
2023-11-30T05:05:16.513Z,95808.38
2023-11-30T05:08:04.256Z,95798.88
2023-11-30T05:10:51.132Z,95785.78
2023-11-30T05:13:37.973Z,95784.16
2023-11-30T05:16:24.960Z,95787.91
2023-11-30T05:19:11.877Z,95787.09
2023-11-30T05:21:58.832Z,95799.19
2023-11-30T05:24:45.676Z,95793.16
2023-11-30T05:27:32.594Z,95790.53
2023-11-30T05:30:19.617Z,95793.31
2023-11-30T05:33:07.815Z,95792.66
2023-11-30T05:35:54.716Z,95790.03
2023-11-30T05:38:41.562Z,95789.22
2023-11-30T05:41:28.594Z,95785.59
2023-11-30T05:44:15.460Z,95785.78
2023-11-30T05:47:02.692Z,95781.34
2023-11-30T05:49:49.704Z,95787.41
2023-11-30T05:52:37.069Z,95790.22
2023-11-30T05:55:23.972Z,95788.53
2023-11-30T05:58:10.853Z,95782.66
2023-11-30T06:00:58.480Z,95787.09
2023-11-30T06:03:45.515Z,95777.44
2023-11-30T06:06:32.541Z,95770.56
2023-11-30T06:09:19.671Z,95770.56
2023-11-30T06:12:06.638Z,95770.56
2023-11-30T06:14:53.595Z,95771.38
2023-11-30T06:17:40.499Z,95774.00
2023-11-30T06:20:27.509Z,95768.91
2023-11-30T06:23:14.519Z,95760.22
2023-11-30T06:26:01.412Z,95764.81
2023-11-30T06:28:48.397Z,95770.03
2023-11-30T06:31:35.318Z,95775.13
2023-11-30T06:34:22.204Z,95769.72
2023-11-30T06:37:09.293Z,95773.66
2023-11-30T06:39:56.144Z,95771.69
2023-11-30T06:42:43.026Z,95778.75
2023-11-30T06:45:29.957Z,95764.31
2023-11-30T06:48:16.948Z,95771.69
2023-11-30T06:51:07.519Z,95767.44
2023-11-30T06:53:54.391Z,95781.53
2023-11-30T06:56:41.296Z,95780.88
2023-11-30T06:59:30.606Z,95787.91
2023-11-30T07:02:18.999Z,95785.44
2023-11-30T07:05:06.680Z,95772.50
2023-11-30T07:07:53.631Z,95771.69
2023-11-30T07:10:40.954Z,95764.81
2023-11-30T07:13:28.613Z,95769.41
2023-11-30T07:16:15.577Z,95769.56
2023-11-30T07:19:02.569Z,95770.72
2023-11-30T07:21:52.541Z,95761.22
2023-11-30T07:24:39.511Z,95750.06
2023-11-30T07:27:27.542Z,95752.50
2023-11-30T07:30:14.683Z,95761.38
2023-11-30T07:33:01.707Z,95768.59
2023-11-30T07:35:51.772Z,95771.19
2023-11-30T07:38:39.050Z,95774.63
2023-11-30T07:41:25.911Z,95762.53
2023-11-30T07:44:13.901Z,95755.63
2023-11-30T07:47:01.005Z,95752.06
2023-11-30T07:49:48.918Z,95748.94
2023-11-30T07:52:38.670Z,95747.13
2023-11-30T07:55:25.556Z,95745.47
2023-11-30T07:58:12.408Z,95752.50
2023-11-30T08:01:02.752Z,95759.56
2023-11-30T08:03:49.803Z,95759.41
2023-11-30T08:06:36.746Z,95752.50
2023-11-30T08:09:24.634Z,95744.66
2023-11-30T08:12:11.810Z,95748.94
2023-11-30T08:14:58.824Z,95751.56
2023-11-30T08:17:47.357Z,95751.56
2023-11-30T08:20:34.263Z,95752.50
2023-11-30T08:23:21.709Z,95759.56
2023-11-30T08:26:08.773Z,95743.03
2023-11-30T08:28:55.728Z,95747.31
2023-11-30T08:31:43.690Z,95744.34
2023-11-30T08:34:30.600Z,95737.13
2023-11-30T08:37:17.557Z,95740.41
2023-11-30T08:40:06.136Z,95748.09
2023-11-30T08:42:53.018Z,95741.88
2023-11-30T08:45:41.458Z,95730.44
2023-11-30T08:48:30.222Z,95730.44
2023-11-30T08:51:17.203Z,95727.00
2023-11-30T08:54:04.493Z,95715.66
2023-11-30T08:56:51.360Z,95710.59
2023-11-30T08:59:38.229Z,95715.84
2023-11-30T09:02:25.706Z,95725.66
2023-11-30T09:05:13.271Z,95735.19
2023-11-30T09:08:00.190Z,95754.47
2023-11-30T09:10:47.044Z,95754.47
2023-11-30T09:13:34.299Z,95748.44
2023-11-30T09:16:25.363Z,95741.25
2023-11-30T09:19:12.181Z,95729.94
2023-11-30T09:21:59.046Z,95730.75
2023-11-30T09:24:45.936Z,95722.09
2023-11-30T09:27:33.387Z,95727.16
2023-11-30T09:30:20.338Z,95729.75
2023-11-30T09:33:07.828Z,95725.34
2023-11-30T09:35:54.772Z,95718.28
2023-11-30T09:38:42.256Z,95714.84
2023-11-30T09:41:29.975Z,95707.81
2023-11-30T09:44:17.309Z,95709.47
2023-11-30T09:47:04.337Z,95706.03
2023-11-30T09:49:51.187Z,95704.22
2023-11-30T09:52:38.605Z,95713.72
2023-11-30T09:55:27.483Z,95710.28
2023-11-30T09:58:16.272Z,95704.88
2023-11-30T10:01:03.461Z,95691.75
2023-11-30T10:03:50.741Z,95681.28
2023-11-30T10:06:37.781Z,95667.53
2023-11-30T10:09:24.900Z,95669.50
2023-11-30T10:12:11.829Z,95659.34
2023-11-30T10:15:02.220Z,95656.09
2023-11-30T10:17:50.161Z,95637.75
2023-11-30T10:20:38.616Z,95642.81
2023-11-30T10:23:25.483Z,95642.66
2023-11-30T10:26:14.234Z,95631.81
2023-11-30T10:29:04.263Z,95634.94
2023-11-30T10:31:54.572Z,95632.97
2023-11-30T10:34:45.671Z,95631.50
2023-11-30T10:37:46.538Z,95616.22
2023-11-30T10:40:33.416Z,95604.25
2023-11-30T10:43:20.394Z,95595.06
2023-11-30T10:46:08.792Z,95588.84
2023-11-30T10:48:56.628Z,95602.41
2023-11-30T10:51:43.696Z,95602.91
2023-11-30T10:54:38.538Z,95600.94
2023-11-30T10:57:25.773Z,95584.22
2023-11-30T11:00:16.989Z,95585.69
2023-11-30T11:03:10.829Z,95592.56
2023-11-30T11:05:58.097Z,95582.38
2023-11-30T11:09:06.532Z,95586.13
2023-11-30T11:12:00.498Z,95593.16
2023-11-30T11:14:49.867Z,95588.09
2023-11-30T11:17:49.677Z,95576.97
2023-11-30T11:20:37.289Z,95581.38
2023-11-30T11:23:24.454Z,95570.91
2023-11-30T11:26:14.761Z,95569.09
2023-11-30T11:29:01.712Z,95563.84
2023-11-30T11:31:48.621Z,95562.69
2023-11-30T11:34:35.479Z,95557.28
2023-11-30T11:37:22.481Z,95556.13
2023-11-30T11:40:09.593Z,95546.44
2023-11-30T11:42:56.610Z,95550.69
2023-11-30T11:45:44.122Z,95544.28
2023-11-30T11:48:31.080Z,95530.19
2023-11-30T11:51:17.995Z,95525.75
2023-11-30T11:54:04.968Z,95523.13
2023-11-30T11:56:52.955Z,95535.09
2023-11-30T11:59:43.176Z,95527.22
2023-11-30T12:02:31.694Z,95511.66
2023-11-30T12:05:23.181Z,95516.38
2023-11-30T12:08:10.120Z,95500.66
2023-11-30T12:10:57.263Z,95507.16
2023-11-30T12:13:44.150Z,95508.44
2023-11-30T12:16:31.104Z,95517.59
2023-11-30T12:19:21.008Z,95519.88
2023-11-30T12:22:08.242Z,95525.59
2023-11-30T12:24:55.209Z,95526.25
2023-11-30T12:27:42.200Z,95516.56
2023-11-30T12:30:29.095Z,95514.56
2023-11-30T12:33:16.045Z,95515.41
2023-11-30T12:36:02.945Z,95522.09
2023-11-30T12:38:50.971Z,95516.03
2023-11-30T12:41:38.031Z,95527.34
2023-11-30T12:44:24.961Z,95519.47
2023-11-30T12:47:12.626Z,95525.72
2023-11-30T12:49:59.520Z,95521.28
2023-11-30T12:52:46.455Z,95514.22
2023-11-30T12:55:34.086Z,95516.84
2023-11-30T12:58:21.074Z,95504.91
2023-11-30T13:01:07.956Z,95519.66
2023-11-30T13:03:55.594Z,95521.47
2023-11-30T13:06:44.206Z,95533.78
2023-11-30T13:09:33.617Z,95542.63
2023-11-30T13:12:21.620Z,95526.06
2023-11-30T13:15:11.642Z,95507.88
2023-11-30T13:17:58.859Z,95501.19
2023-11-30T13:20:45.775Z,95494.13
2023-11-30T13:23:32.615Z,95503.97
2023-11-30T13:26:19.561Z,95506.59
2023-11-30T13:29:06.417Z,95500.50
2023-11-30T13:31:53.261Z,95504.94
2023-11-30T13:34:40.225Z,95513.81
2023-11-30T13:37:27.079Z,95512.00
2023-11-30T13:40:14.013Z,95519.25
2023-11-30T13:43:00.926Z,95510.56
2023-11-30T13:45:47.958Z,95502.50
2023-11-30T13:48:35.062Z,95499.91
2023-11-30T13:51:22.100Z,95505.34
2023-11-30T13:54:09.077Z,95487.78
2023-11-30T13:56:56.072Z,95514.00
2023-11-30T13:59:43.060Z,95515.81
2023-11-30T14:02:29.913Z,95507.09
2023-11-30T14:05:16.918Z,95521.69
2023-11-30T14:08:04.015Z,95524.50
2023-11-30T14:10:52.243Z,95526.13
2023-11-30T14:13:39.784Z,95527.75
2023-11-30T14:16:27.585Z,95525.31
2023-11-30T14:19:14.726Z,95521.50
2023-11-30T14:22:01.629Z,95514.47
2023-11-30T14:24:48.599Z,95519.88
2023-11-30T14:27:36.457Z,95522.34
2023-11-30T14:30:23.360Z,95524.13
2023-11-30T14:33:12.580Z,95525.94
2023-11-30T14:36:00.948Z,95518.88
2023-11-30T14:38:47.809Z,95513.47
2023-11-30T14:41:34.672Z,95514.28
2023-11-30T14:44:21.584Z,95507.41
2023-11-30T14:47:11.062Z,95517.72
2023-11-30T14:49:57.965Z,95524.78
2023-11-30T14:52:45.836Z,95524.78
2023-11-30T14:55:33.514Z,95522.16
2023-11-30T14:58:21.246Z,95520.34
2023-11-30T15:01:12.212Z,95515.28
2023-11-30T15:03:59.656Z,95516.91
2023-11-30T15:06:46.597Z,95518.53
2023-11-30T15:09:33.786Z,95525.59
2023-11-30T15:12:20.786Z,95518.38
2023-11-30T15:15:15.323Z,95512.31
2023-11-30T15:18:03.483Z,95524.44
2023-11-30T15:20:50.422Z,95532.31
2023-11-30T15:23:37.421Z,95517.56
2023-11-30T15:26:24.353Z,95527.88
2023-11-30T15:29:11.335Z,95538.19
2023-11-30T15:31:58.410Z,95533.78
2023-11-30T15:34:45.561Z,95529.97
2023-11-30T15:37:32.931Z,95529.09
2023-11-30T15:40:22.052Z,95534.66
2023-11-30T15:43:09.287Z,95531.13
2023-11-30T15:45:56.199Z,95528.97
2023-11-30T15:48:43.582Z,95522.56
2023-11-30T15:51:30.590Z,95525.00
2023-11-30T15:54:17.455Z,95526.00
2023-11-30T15:57:04.557Z,95521.72
2023-11-30T15:59:51.504Z,95509.78
2023-11-30T16:02:39.544Z,95541.91
2023-11-30T16:05:26.494Z,95547.50
2023-11-30T16:08:13.390Z,95538.00
2023-11-30T16:11:00.280Z,95526.69
2023-11-30T16:13:47.116Z,95506.06
2023-11-30T16:16:34.970Z,95519.19
2023-11-30T16:19:22.087Z,95517.38
2023-11-30T16:22:09.545Z,95499.38
2023-11-30T16:24:56.548Z,95517.56
2023-11-30T16:27:43.923Z,95539.38
2023-11-30T16:30:31.090Z,95541.19
2023-11-30T16:33:19.031Z,95535.13
2023-11-30T16:36:06.337Z,95492.31
2023-11-30T16:38:53.208Z,95507.06
2023-11-30T16:41:41.000Z,95521.81
2023-11-30T16:44:28.006Z,95547.22
2023-11-30T16:47:15.420Z,95558.72
2023-11-30T16:50:04.154Z,95567.63
2023-11-30T16:52:51.027Z,95579.72
2023-11-30T16:55:38.122Z,95574.47
2023-11-30T16:58:30.180Z,95580.72
2023-11-30T17:01:17.059Z,95560.53
2023-11-30T17:04:07.122Z,95548.59
2023-11-30T17:06:54.463Z,95548.41
2023-11-30T17:09:41.540Z,95527.41
2023-11-30T17:12:28.408Z,95500.34
2023-11-30T17:15:15.459Z,95516.09
2023-11-30T17:18:02.507Z,95545.78
2023-11-30T17:20:49.421Z,95558.09
2023-11-30T17:23:38.820Z,95545.97
2023-11-30T17:26:25.665Z,95542.34
2023-11-30T17:29:13.415Z,95539.91
2023-11-30T17:32:00.800Z,95537.09
2023-11-30T17:34:47.829Z,95552.69
2023-11-30T17:37:34.835Z,95560.53
2023-11-30T17:40:22.485Z,95548.41
2023-11-30T17:43:09.474Z,95520.88
2023-11-30T17:45:57.650Z,95498.25
2023-11-30T17:48:44.601Z,95493.00
2023-11-30T17:51:31.558Z,95505.31
2023-11-30T17:54:18.671Z,95509.75
2023-11-30T17:57:05.554Z,95540.44
2023-11-30T17:59:54.197Z,95537.81
2023-11-30T18:02:41.139Z,95551.75
2023-11-30T18:05:28.065Z,95555.34
2023-11-30T18:08:15.573Z,95569.31
2023-11-30T18:11:02.457Z,95568.44
2023-11-30T18:13:49.284Z,95564.06
2023-11-30T18:16:36.148Z,95556.19
2023-11-30T18:19:23.148Z,95548.31
2023-11-30T18:22:10.024Z,95527.13
2023-11-30T18:24:57.066Z,95515.81
2023-11-30T18:27:44.042Z,95524.50
2023-11-30T18:30:31.518Z,95514.00
2023-11-30T18:33:18.675Z,95511.19
2023-11-30T18:36:06.154Z,95534.00
2023-11-30T18:38:53.581Z,95532.38
2023-11-30T18:41:40.978Z,95542.88
2023-11-30T18:44:27.834Z,95543.53
2023-11-30T18:47:17.229Z,95538.28
2023-11-30T18:50:08.187Z,95541.72
2023-11-30T18:52:55.072Z,95537.28
2023-11-30T18:55:41.937Z,95538.09
2023-11-30T18:58:29.250Z,95551.22
2023-11-30T19:01:16.567Z,95543.34
2023-11-30T19:04:03.758Z,95545.97
2023-11-30T19:06:50.777Z,95546.59
2023-11-30T19:09:37.699Z,95551.84
2023-11-30T19:12:24.557Z,95544.81
2023-11-30T19:15:11.811Z,95551.84
2023-11-30T19:18:01.181Z,95547.44
2023-11-30T19:20:48.417Z,95543.81
2023-11-30T19:23:35.282Z,95550.84
2023-11-30T19:26:22.141Z,95535.13
2023-11-30T19:29:11.310Z,95524.63
2023-11-30T19:31:58.197Z,95513.31
2023-11-30T19:34:45.061Z,95522.81
2023-11-30T19:37:32.035Z,95521.00
2023-11-30T19:40:19.002Z,95526.25
2023-11-30T19:43:06.643Z,95527.25
2023-11-30T19:45:55.518Z,95515.94
2023-11-30T19:48:45.421Z,95510.50
2023-11-30T19:51:33.663Z,95498.38
2023-11-30T19:54:20.634Z,95503.63
2023-11-30T19:57:07.591Z,95515.94
2023-11-30T19:59:54.529Z,95509.03
2023-11-30T20:02:41.576Z,95508.22
2023-11-30T20:05:28.609Z,95506.59
2023-11-30T20:08:16.235Z,95502.97
2023-11-30T20:11:06.561Z,95480.34
2023-11-30T20:13:53.409Z,95497.72
2023-11-30T20:16:43.520Z,95496.91
2023-11-30T20:19:30.482Z,95493.66
2023-11-30T20:22:17.355Z,95492.00
2023-11-30T20:25:05.304Z,95499.72
2023-11-30T20:27:52.236Z,95508.41
2023-11-30T20:30:39.318Z,95511.19
2023-11-30T20:33:26.214Z,95529.56
2023-11-30T20:36:13.192Z,95531.38
2023-11-30T20:39:00.031Z,95523.50
2023-11-30T20:41:46.970Z,95511.19
2023-11-30T20:44:33.823Z,95525.16
2023-11-30T20:47:27.316Z,95527.94
2023-11-30T20:50:14.174Z,95529.75
2023-11-30T20:53:01.320Z,95532.38
2023-11-30T20:55:48.269Z,95542.69
2023-11-30T20:58:36.057Z,95534.19
2023-11-30T21:01:23.338Z,95545.50
2023-11-30T21:04:10.392Z,95543.69
2023-11-30T21:06:57.374Z,95551.56
2023-11-30T21:09:44.279Z,95546.31
2023-11-30T21:12:31.310Z,95534.19
2023-11-30T21:15:18.198Z,95538.28
2023-11-30T21:18:07.346Z,95540.91
2023-11-30T21:20:54.295Z,95535.81
2023-11-30T21:23:41.216Z,95536.63
2023-11-30T21:26:28.142Z,95534.81
2023-11-30T21:29:15.003Z,95538.28
2023-11-30T21:32:03.522Z,95538.44
2023-11-30T21:34:50.439Z,95538.44
2023-11-30T21:37:37.401Z,95528.75
2023-11-30T21:40:24.323Z,95530.56
2023-11-30T21:43:11.163Z,95532.19
2023-11-30T21:45:58.311Z,95534.00
2023-11-30T21:48:45.329Z,95548.94
2023-11-30T21:51:33.119Z,95542.69
2023-11-30T21:54:20.878Z,95537.63
2023-11-30T21:57:08.168Z,95541.06
2023-11-30T21:59:55.059Z,95533.19
2023-11-30T22:02:45.626Z,95529.75
2023-11-30T22:05:36.491Z,95522.69
2023-11-30T22:08:24.183Z,95512.19
2023-11-30T22:11:11.032Z,95503.31
2023-11-30T22:13:57.901Z,95511.38
2023-11-30T22:16:46.102Z,95517.63
2023-11-30T22:19:33.117Z,95522.06
2023-11-30T22:22:20.159Z,95521.88
2023-11-30T22:25:07.515Z,95524.50
2023-11-30T22:27:55.147Z,95520.06
2023-11-30T22:30:42.039Z,95539.44
2023-11-30T22:33:28.938Z,95536.00
2023-11-30T22:36:15.907Z,95530.75
2023-11-30T22:39:02.998Z,95532.38
2023-11-30T22:41:50.878Z,95545.50
2023-11-30T22:44:38.042Z,95542.06
2023-11-30T22:47:25.995Z,95528.63
2023-11-30T22:50:12.961Z,95536.97
2023-11-30T22:53:00.019Z,95541.25
2023-11-30T22:55:48.776Z,95544.84
2023-11-30T22:58:36.337Z,95534.19
2023-11-30T23:01:23.495Z,95536.00
2023-11-30T23:04:10.781Z,95524.84
2023-11-30T23:06:57.890Z,95527.31
2023-11-30T23:09:44.885Z,95514.19
2023-11-30T23:12:31.816Z,95513.53
2023-11-30T23:15:18.675Z,95518.44
2023-11-30T23:18:05.583Z,95525.66
2023-11-30T23:20:52.767Z,95525.50
2023-11-30T23:23:39.687Z,95524.50
2023-11-30T23:26:26.548Z,95522.88
2023-11-30T23:29:13.426Z,95519.25
2023-11-30T23:32:00.261Z,95510.56
2023-11-30T23:34:47.464Z,95515.81
2023-11-30T23:37:34.311Z,95523.50
2023-11-30T23:40:21.139Z,95514.81
2023-11-30T23:43:08.239Z,95501.53
2023-11-30T23:45:55.144Z,95511.19
2023-11-30T23:48:42.033Z,95516.44
2023-11-30T23:51:28.968Z,95505.13
2023-11-30T23:54:15.814Z,95500.88
2023-11-30T23:57:03.017Z,95508.56
2023-11-30T23:59:49.992Z,95500.06
